logo
Search for airport 
image banner adimage banner adimage banner ad
image banner ad

EGSO - Crowfield

Located in , United Kingdom

ICAO - EGSO, IATA -

Data provided by Airmate  

General information

Coordinates: N52°10'16" E1°6'40"
Elevation is 201 feet MSL.
 
View others Airports in England

Operational data

Special qualification required
Current time UTC:
Current local time:
Weather at : EGUW - Wattisham ( 12 km )
METAR: EGUW 070050Z AUTO 24004KT 0800 FG OVC001/// M01/M01 Q1038
TAF: TAF EGUW 061335Z 0615/0624 26007KT CAVOK TEMPO 0619/0624 6000 BR PROB30 TEMPO 0623/0624 3000
View NOTAMs / SUP AIP / TFR affecting this airport [VIEW]
Communications frequencies: [VIEW]

Runways:

Airport contact information

Address: United Kingdom

Other aviation service providers

Flight schools

Ross Williamson T/A Crowfield Airfield

Ross Williamson T/A Crowfield Airfield
+44 01449711017

Satellite view of EGSO